Time;durP1;ratioP1;P1;durP2;ratioP2;P2;SDS_P1;SDS_P2;PMS_P1;PMS_P2;Temp;Humidity;BMP_temperature;BMP_pressure;BME280_temperature;BME280_humidity;BME280_pressure;Samples;Min_cycle;Max_cycle;Signal;HPM_P1;HPM_P2
2023/10/29 00:02:12;;;;;;;;;;;;;;;14.55;82.93;99828.50;5127329;27;19915;-80
2023/10/29 00:04:38;;;;;;;;;;;;;;;14.70;81.68;99830.59;5130675;27;19945;-81
2023/10/29 00:07:03;;;;;;;;;;;;;;;14.59;82.75;99832.34;5127440;27;19944;-80
2023/10/29 00:09:29;;;;;;;;;;;;;;;14.68;81.98;99823.84;5110773;28;19933;-81
2023/10/29 00:11:54;;;;;;;;;;;;;;;14.60;83.17;99825.09;5111428;28;19912;-80
2023/10/29 00:14:19;;;;;;;;;;;;;;;14.69;82.45;99826.28;5111320;27;19920;-80
2023/10/29 00:16:45;;;;;;;;;;;;;;;13.77;87.05;99823.22;5110814;27;19923;-81
2023/10/29 00:19:10;;;;;;;;;;;;;;;13.71;88.04;99831.41;5110833;28;20049;-80
2023/10/29 00:21:35;;;;;;;;;;;;;;;13.62;88.75;99823.78;5111437;28;19912;-81
2023/10/29 00:24:01;;;;;;;;;;;;;;;13.98;87.93;99832.34;5110806;28;19916;-80
2023/10/29 00:26:26;;;;;;;;;;;;;;;13.93;87.41;99832.25;5110528;28;19947;-81
2023/10/29 00:28:51;;;;;;;;;;;;;;;14.08;86.32;99834.38;5111079;27;20004;-81
2023/10/29 00:31:17;;;;;;;;;;;;;;;13.71;88.06;99824.19;5107774;28;19912;-80
2023/10/29 00:33:42;;;;;;;;;;;;;;;14.05;85.93;99841.00;5109535;28;20004;-80
2023/10/29 00:36:08;;;;;;;;;;;;;;;13.88;87.15;99840.25;5110983;28;19919;-81
2023/10/29 00:38:33;;;;;;;;;;;;;;;14.22;85.31;99842.84;5109371;28;19915;-80
2023/10/29 00:40:59;;;;;;;;;;;;;;;14.39;83.18;99862.38;5113134;27;19926;-80
2023/10/29 00:43:24;;;;;;;;;;;;;;;14.27;81.55;99862.50;5122607;27;19943;-80
2023/10/29 00:45:54;;;;;;;;;;;;;;;13.79;84.10;99860.47;5121756;27;20390;-80
2023/10/29 00:48:19;;;;;;;;;;;;;;;13.89;84.63;99865.97;5098909;28;19922;-81
2023/10/29 00:50:45;;;;;;;;;;;;;;;13.90;84.38;99866.81;5106226;28;19919;-81
2023/10/29 00:53:10;;;;;;;;;;;;;;;13.90;84.94;99875.66;5110954;28;20596;-80
2023/10/29 00:55:36;;;;;;;;;;;;;;;13.99;84.46;99874.19;5110729;27;19915;-80
2023/10/29 00:58:02;;;;;;;;;;;;;;;14.15;83.53;99874.41;5109949;28;19920;-80
2023/10/29 01:00:27;;;;;;;;;;;;;;;14.18;83.93;99879.25;5109702;28;19981;-81
2023/10/29 01:02:52;;;;;;;;;;;;;;;13.97;85.29;99873.59;5136778;27;19958;-81
2023/10/29 01:05:17;;;;;;;;;;;;;;;13.45;88.56;99873.88;5113168;27;19919;-80
2023/10/29 01:07:43;;;;;;;;;;;;;;;13.53;88.82;99878.03;5110285;27;19919;-80
2023/10/29 01:10:09;;;;;;;;;;;;;;;13.73;86.69;99878.38;5112175;27;20674;-81
2023/10/29 01:12:34;;;;;;;;;;;;;;;13.35;89.68;99876.38;5110203;28;20022;-81
2023/10/29 01:15:00;;;;;;;;;;;;;;;13.63;87.15;99883.56;5124099;27;20022;-80
2023/10/29 01:17:25;;;;;;;;;;;;;;;13.04;91.33;99886.53;5112358;27;20508;-79
2023/10/29 01:19:50;;;;;;;;;;;;;;;13.65;87.75;99895.66;5110989;27;19964;-81
2023/10/29 01:22:19;;;;;;;;;;;;;;;13.27;88.85;99891.75;5110690;27;19915;-80
2023/10/29 01:24:44;;;;;;;;;;;;;;;13.40;88.60;99900.56;5110502;27;19915;-79
2023/10/29 01:27:10;;;;;;;;;;;;;;;13.62;87.07;99900.69;5110364;27;19987;-80
2023/10/29 01:29:35;;;;;;;;;;;;;;;13.22;87.97;99896.22;5111073;27;19915;-81
2023/10/29 01:32:01;;;;;;;;;;;;;;;13.43;86.68;99897.41;5114310;27;19915;-80
2023/10/29 01:34:28;;;;;;;;;;;;;;;13.70;85.62;99888.75;5112008;27;19915;-81
2023/10/29 01:36:54;;;;;;;;;;;;;;;13.58;83.08;99894.19;5125575;27;19919;-80
2023/10/29 01:39:19;;;;;;;;;;;;;;;13.31;83.23;99902.03;5112304;27;19926;-80
2023/10/29 01:41:46;;;;;;;;;;;;;;;13.63;82.50;99895.09;5108878;27;20014;-80
2023/10/29 01:44:12;;;;;;;;;;;;;;;13.85;80.23;99907.75;5120257;27;19916;-80
2023/10/29 01:46:37;;;;;;;;;;;;;;;13.22;81.87;99910.41;5125293;27;19922;-81
2023/10/29 01:49:07;;;;;;;;;;;;;;;12.55;86.64;99912.84;5110018;28;19916;-80
2023/10/29 01:51:32;;;;;;;;;;;;;;;12.56;87.35;99911.78;5108474;27;19927;-81
2023/10/29 01:53:57;;;;;;;;;;;;;;;12.35;88.00;99910.53;5103012;28;19954;-80
2023/10/29 01:56:23;;;;;;;;;;;;;;;12.60;86.83;99907.59;5109717;28;19938;-80
2023/10/29 01:58:48;;;;;;;;;;;;;;;12.53;87.41;99906.91;5124073;27;19915;-81
2023/10/29 02:01:14;;;;;;;;;;;;;;;12.97;85.84;99909.94;5111924;27;20300;-80
2023/10/29 02:03:39;;;;;;;;;;;;;;;12.39;88.14;99904.47;5109875;28;19915;-81
2023/10/29 02:06:13;;;;;;;;;;;;;;;12.66;87.06;99912.00;5109972;27;19979;-80
2023/10/29 02:08:41;;;;;;;;;;;;;;;12.49;86.74;99921.81;5111197;28;19937;-80
2023/10/29 02:11:06;;;;;;;;;;;;;;;12.08;87.71;99920.91;5110060;28;19938;-80
2023/10/29 02:13:31;;;;;;;;;;;;;;;11.94;89.24;99915.78;5115452;27;20372;-80
2023/10/29 02:15:57;;;;;;;;;;;;;;;12.56;85.85;99927.84;5116533;27;20007;-82
2023/10/29 02:18:22;;;;;;;;;;;;;;;12.65;86.15;99921.09;5108154;28;19941;-80
2023/10/29 02:20:47;;;;;;;;;;;;;;;12.83;84.87;99928.94;5109851;28;19915;-81
2023/10/29 02:23:13;;;;;;;;;;;;;;;12.58;84.96;99936.44;5109387;28;20010;-81
2023/10/29 02:25:38;;;;;;;;;;;;;;;11.74;90.82;99934.75;5109603;28;20564;-82
2023/10/29 02:28:03;;;;;;;;;;;;;;;11.55;93.66;99936.69;5108018;28;19954;-81
2023/10/29 02:30:28;;;;;;;;;;;;;;;11.57;92.55;99936.47;5108936;28;19998;-81
2023/10/29 02:32:54;;;;;;;;;;;;;;;11.94;91.14;99942.50;5109403;28;20305;-81
2023/10/29 02:35:19;;;;;;;;;;;;;;;12.04;90.06;99947.28;5113922;28;19915;-80
2023/10/29 02:37:44;;;;;;;;;;;;;;;12.04;91.02;99948.09;5124670;28;20002;-81
2023/10/29 02:40:10;;;;;;;;;;;;;;;12.37;89.33;99957.38;5127515;28;19915;-80
2023/10/29 02:42:35;;;;;;;;;;;;;;;12.53;88.07;99949.72;5118737;28;20301;-81
2023/10/29 02:45:00;;;;;;;;;;;;;;;12.14;90.03;99946.72;5109812;28;19961;-80
2023/10/29 02:47:25;;;;;;;;;;;;;;;12.28;89.54;99948.09;5116086;28;19911;-80
2023/10/29 02:49:51;;;;;;;;;;;;;;;12.32;89.43;99949.28;5125708;28;19915;-82
2023/10/29 02:52:16;;;;;;;;;;;;;;;13.01;85.56;99964.63;5114974;28;19961;-81
2023/10/29 02:54:41;;;;;;;;;;;;;;;12.41;88.16;99961.22;5116632;28;19961;-81
2023/10/29 02:57:07;;;;;;;;;;;;;;;11.89;91.08;99961.09;5131652;28;19972;-81
2023/10/29 02:59:32;;;;;;;;;;;;;;;12.46;88.09;99966.69;5118286;28;20434;-82
2023/10/29 03:01:57;;;;;;;;;;;;;;;12.44;88.22;99966.13;5115981;28;19915;-81
2023/10/29 03:04:23;;;;;;;;;;;;;;;12.93;85.17;99964.97;5131505;28;19916;-81
2023/10/29 03:06:48;;;;;;;;;;;;;;;13.01;84.35;99962.75;5133118;27;19919;-81
2023/10/29 03:09:14;;;;;;;;;;;;;;;12.43;86.60;99961.81;5154225;27;20303;-82
2023/10/29 03:11:39;;;;;;;;;;;;;;;12.01;88.77;99961.94;5122871;28;19930;-81
2023/10/29 03:14:04;;;;;;;;;;;;;;;12.10;88.49;99969.59;5118681;28;19927;-81
2023/10/29 03:16:30;;;;;;;;;;;;;;;11.99;88.96;99966.69;5113026;28;19962;-81
2023/10/29 03:18:55;;;;;;;;;;;;;;;11.69;89.62;99971.22;5122517;27;19954;-81
2023/10/29 03:21:20;;;;;;;;;;;;;;;12.09;87.88;99966.09;5121697;28;19927;-81
2023/10/29 03:23:46;;;;;;;;;;;;;;;12.23;86.35;99967.50;5118790;28;20026;-81
2023/10/29 03:26:11;;;;;;;;;;;;;;;11.98;88.21;99957.03;5104426;28;19916;-81
2023/10/29 03:28:37;;;;;;;;;;;;;;;12.43;85.25;99961.81;5123083;27;19919;-81
2023/10/29 03:31:09;;;;;;;;;;;;;;;12.59;84.78;99975.53;5133315;27;19927;-81
2023/10/29 03:33:34;;;;;;;;;;;;;;;12.26;84.80;99974.25;5121895;27;20010;-81
2023/10/29 03:36:02;;;;;;;;;;;;;;;11.94;87.37;99990.59;5113876;27;20375;-81
2023/10/29 03:38:27;;;;;;;;;;;;;;;11.67;88.55;99995.50;5114698;27;20375;-81
2023/10/29 03:40:53;;;;;;;;;;;;;;;11.98;88.13;100007.81;5112341;28;19920;-81
2023/10/29 03:43:18;;;;;;;;;;;;;;;12.21;87.70;100000.88;5115666;27;19955;-82
2023/10/29 03:45:43;;;;;;;;;;;;;;;12.33;87.52;99999.00;5112845;27;19915;-80
2023/10/29 03:48:08;;;;;;;;;;;;;;;12.12;88.67;99996.91;5112806;27;20502;-81
2023/10/29 03:50:34;;;;;;;;;;;;;;;11.88;90.21;99972.78;5113088;27;19930;-80
2023/10/29 03:52:59;;;;;;;;;;;;;;;11.57;91.72;100006.72;5107577;28;19920;-80
2023/10/29 03:55:24;;;;;;;;;;;;;;;11.87;91.00;100005.91;5092546;28;19918;-81
2023/10/29 03:57:49;;;;;;;;;;;;;;;11.72;91.73;100006.31;5107495;27;19915;-81
2023/10/29 04:00:15;;;;;;;;;;;;;;;11.59;92.83;100015.34;5112688;28;19915;-82
2023/10/29 04:02:41;;;;;;;;;;;;;;;11.68;91.90;100013.16;5113519;27;19926;-81
2023/10/29 04:05:06;;;;;;;;;;;;;;;11.72;92.05;100014.31;5112606;28;19969;-81
2023/10/29 04:07:32;;;;;;;;;;;;;;;12.03;92.31;100010.63;5111461;28;19920;-81
2023/10/29 04:09:58;;;;;;;;;;;;;;;11.95;92.25;100002.94;5128794;27;19915;-81
2023/10/29 04:12:26;;;;;;;;;;;;;;;12.29;90.90;100000.53;5115662;27;20018;-80
2023/10/29 04:14:51;;;;;;;;;;;;;;;12.38;90.71;100015.19;5109950;28;19920;-81
2023/10/29 04:17:16;;;;;;;;;;;;;;;12.54;89.51;100020.88;5110700;28;20138;-80
2023/10/29 04:19:42;;;;;;;;;;;;;;;11.66;94.43;100021.38;5114515;27;19919;-81
2023/10/29 04:22:08;;;;;;;;;;;;;;;11.51;93.40;100022.84;5121169;27;19927;-81
2023/10/29 04:24:33;;;;;;;;;;;;;;;12.01;91.99;100023.41;5115337;27;19947;-81
2023/10/29 04:26:58;;;;;;;;;;;;;;;11.74;93.13;100022.13;5125453;27;19986;-81
2023/10/29 04:29:24;;;;;;;;;;;;;;;12.04;90.60;100027.47;5110452;28;19922;-81
2023/10/29 04:31:49;;;;;;;;;;;;;;;11.83;92.18;100039.47;5112775;27;19926;-81
2023/10/29 04:34:14;;;;;;;;;;;;;;;11.59;92.34;100041.22;5110687;27;19926;-80
2023/10/29 04:36:42;;;;;;;;;;;;;;;11.29;94.95;100051.88;5111097;28;19980;-81
2023/10/29 04:39:07;;;;;;;;;;;;;;;11.20;93.64;100049.50;5113387;27;19916;-81
2023/10/29 04:41:33;;;;;;;;;;;;;;;11.72;92.20;100045.56;5122648;27;19930;-80
2023/10/29 04:43:58;;;;;;;;;;;;;;;12.11;90.91;100049.53;5117799;27;20042;-81
2023/10/29 04:46:23;;;;;;;;;;;;;;;12.22;90.12;100055.97;5114892;27;19920;-80
2023/10/29 04:48:49;;;;;;;;;;;;;;;12.35;89.44;100050.41;5108128;28;19986;-81
2023/10/29 04:51:14;;;;;;;;;;;;;;;12.42;90.15;100056.47;5111279;27;19923;-81
2023/10/29 04:53:39;;;;;;;;;;;;;;;12.11;90.22;100064.78;5113910;27;20295;-81
2023/10/29 04:56:05;;;;;;;;;;;;;;;11.89;91.30;100062.63;5118016;27;19915;-80
2023/10/29 04:58:33;;;;;;;;;;;;;;;11.97;89.99;100067.66;5115992;27;19920;-81
2023/10/29 05:00:59;;;;;;;;;;;;;;;11.52;88.67;100073.34;5110835;27;19923;-81
2023/10/29 05:03:26;;;;;;;;;;;;;;;11.85;91.63;100072.13;5110838;27;19934;-80
2023/10/29 05:05:53;;;;;;;;;;;;;;;12.10;90.96;100073.84;5093398;28;20368;-81
2023/10/29 05:08:18;;;;;;;;;;;;;;;11.19;92.75;100084.44;5110327;28;19948;-82
2023/10/29 05:10:45;;;;;;;;;;;;;;;10.78;93.20;100083.19;5122061;27;20299;-80
2023/10/29 05:13:10;;;;;;;;;;;;;;;10.65;93.82;100073.47;5114754;27;19977;-80
2023/10/29 05:15:38;;;;;;;;;;;;;;;11.02;93.38;100082.34;5114207;27;19916;-81
2023/10/29 05:18:03;;;;;;;;;;;;;;;11.11;91.98;100077.53;5110192;27;19916;-80
2023/10/29 05:20:29;;;;;;;;;;;;;;;11.13;92.87;100085.31;5116557;27;19919;-81
2023/10/29 05:22:54;;;;;;;;;;;;;;;11.12;93.90;100081.03;5117480;27;19923;-80
2023/10/29 05:25:19;;;;;;;;;;;;;;;11.33;95.01;100080.56;5107954;27;19916;-80
2023/10/29 05:27:51;;;;;;;;;;;;;;;11.56;94.31;100087.88;5119844;27;20393;-81
2023/10/29 05:30:17;;;;;;;;;;;;;;;11.66;94.57;100093.50;5109329;27;19968;-81
2023/10/29 05:32:42;;;;;;;;;;;;;;;12.06;91.47;100093.00;5109681;28;19924;-80
2023/10/29 05:35:08;;;;;;;;;;;;;;;12.20;91.03;100100.84;5112658;27;19923;-80
2023/10/29 05:37:33;;;;;;;;;;;;;;;12.42;91.14;100099.28;5125801;27;19987;-81
2023/10/29 05:39:59;;;;;;;;;;;;;;;11.95;93.01;100101.81;5124679;27;20435;-80
2023/10/29 05:42:25;;;;;;;;;;;;;;;11.74;92.30;100112.94;5107810;28;19931;-80
2023/10/29 05:44:50;;;;;;;;;;;;;;;11.83;91.98;100122.31;5112871;27;19915;-80
2023/10/29 05:47:15;;;;;;;;;;;;;;;12.19;90.90;100117.91;5124949;27;20020;-81
2023/10/29 05:49:41;;;;;;;;;;;;;;;12.32;89.78;100131.09;5109782;28;19916;-82
2023/10/29 05:52:06;;;;;;;;;;;;;;;12.25;91.67;100125.03;5109898;28;19916;-81
2023/10/29 05:54:31;;;;;;;;;;;;;;;12.16;93.16;100137.09;5112200;27;20301;-80
2023/10/29 05:56:57;;;;;;;;;;;;;;;12.39;93.05;100139.81;5108376;28;19945;-80
2023/10/29 05:59:23;;;;;;;;;;;;;;;12.55;93.66;100145.56;5109677;28;20014;-81
2023/10/29 06:01:48;;;;;;;;;;;;;;;13.24;90.38;100148.53;5109790;28;19916;-82
2023/10/29 06:04:14;;;;;;;;;;;;;;;13.25;89.39;100150.13;5111674;28;19923;-81
2023/10/29 06:06:42;;;;;;;;;;;;;;;13.21;89.72;100160.50;5110459;27;19951;-82
2023/10/29 06:09:07;;;;;;;;;;;;;;;13.41;90.28;100164.72;5118122;27;19926;-82
2023/10/29 06:11:32;;;;;;;;;;;;;;;13.68;88.83;100173.03;5125262;27;19915;-81
2023/10/29 06:13:57;;;;;;;;;;;;;;;13.78;88.20;100175.94;5114450;27;20314;-80
2023/10/29 06:16:23;;;;;;;;;;;;;;;14.03;86.46;100177.50;5112490;27;19951;-81
2023/10/29 06:18:48;;;;;;;;;;;;;;;14.48;84.68;100174.00;5108978;28;19998;-81
2023/10/29 06:21:14;;;;;;;;;;;;;;;14.76;84.24;100175.88;5108919;28;20356;-81
2023/10/29 06:23:39;;;;;;;;;;;;;;;14.99;81.94;100176.75;5124735;27;19919;-82
2023/10/29 06:26:10;;;;;;;;;;;;;;;14.95;81.66;100189.03;5124955;27;20308;-81
2023/10/29 06:28:36;;;;;;;;;;;;;;;15.17;80.50;100181.88;5111042;28;19916;-83
2023/10/29 06:31:01;;;;;;;;;;;;;;;15.14;81.07;100182.38;5107515;28;19951;-82
2023/10/29 06:33:26;;;;;;;;;;;;;;;15.58;80.26;100174.38;5108355;28;19973;-81
2023/10/29 06:35:52;;;;;;;;;;;;;;;15.72;77.91;100187.44;5108351;28;20316;-82
2023/10/29 06:38:17;;;;;;;;;;;;;;;16.00;77.45;100192.66;5107384;28;20006;-82
2023/10/29 06:40:42;;;;;;;;;;;;;;;16.06;76.90;100188.97;5124865;28;20368;-81
2023/10/29 06:43:08;;;;;;;;;;;;;;;16.09;79.71;100195.72;5108289;28;19961;-81
2023/10/29 06:45:33;;;;;;;;;;;;;;;16.23;78.55;100190.75;5108147;28;19946;-81
2023/10/29 06:47:58;;;;;;;;;;;;;;;16.37;77.52;100205.44;5111119;28;19962;-80
2023/10/29 06:50:24;;;;;;;;;;;;;;;16.60;75.39;100203.50;5112779;27;19938;-80
2023/10/29 06:52:49;;;;;;;;;;;;;;;16.62;74.75;100217.50;5112681;27;19920;-81
2023/10/29 06:55:14;;;;;;;;;;;;;;;16.73;73.27;100208.44;5115969;27;20311;-80
2023/10/29 06:57:39;;;;;;;;;;;;;;;16.67;73.50;100204.91;5111140;28;20397;-80
2023/10/29 07:00:07;;;;;;;;;;;;;;;16.92;72.70;100214.31;5112599;28;19938;-80
2023/10/29 07:02:32;;;;;;;;;;;;;;;17.33;68.30;100216.50;5114695;27;19915;-80
2023/10/29 07:04:59;;;;;;;;;;;;;;;17.20;67.71;100204.25;5144734;27;19915;-81
2023/10/29 07:07:29;;;;;;;;;;;;;;;17.15;68.99;100207.75;5115408;27;19948;-79
2023/10/29 07:09:54;;;;;;;;;;;;;;;17.36;67.66;100213.25;5107129;28;19919;-81
2023/10/29 07:12:20;;;;;;;;;;;;;;;17.58;68.73;100208.53;5111549;27;19939;-80
2023/10/29 07:14:45;;;;;;;;;;;;;;;17.98;65.48;100223.31;5111204;27;19920;-80
2023/10/29 07:17:10;;;;;;;;;;;;;;;18.14;63.16;100226.88;5111924;28;20016;-82
2023/10/29 07:19:36;;;;;;;;;;;;;;;18.30;61.77;100224.22;5111671;28;19915;-81
2023/10/29 07:22:01;;;;;;;;;;;;;;;18.44;61.82;100220.75;5111410;28;19923;-82
2023/10/29 07:24:26;;;;;;;;;;;;;;;18.42;63.00;100222.91;5117300;27;20019;-81
2023/10/29 07:26:51;;;;;;;;;;;;;;;18.43;62.20;100226.44;5109605;27;19922;-80
2023/10/29 07:29:17;;;;;;;;;;;;;;;18.55;61.21;100226.16;5112648;27;19972;-81
2023/10/29 07:31:42;;;;;;;;;;;;;;;18.90;59.83;100232.69;5112293;27;20624;-82
2023/10/29 07:34:08;;;;;;;;;;;;;;;19.05;59.64;100235.41;5113370;27;19919;-82
2023/10/29 07:36:33;;;;;;;;;;;;;;;19.32;59.24;100240.50;5111697;27;19993;-83
2023/10/29 07:38:58;;;;;;;;;;;;;;;19.52;57.49;100234.25;5122591;27;19950;-82
2023/10/29 07:41:24;;;;;;;;;;;;;;;19.40;58.53;100239.16;5113101;27;20580;-82
2023/10/29 07:43:49;;;;;;;;;;;;;;;19.68;59.78;100233.13;5111803;27;19925;-82
2023/10/29 07:46:15;;;;;;;;;;;;;;;20.09;57.23;100242.22;5114505;27;19930;-82
2023/10/29 07:48:43;;;;;;;;;;;;;;;20.18;56.26;100235.13;5124614;27;19919;-83
2023/10/29 07:51:10;;;;;;;;;;;;;;;20.23;55.31;100235.13;5125712;27;20045;-82
2023/10/29 07:53:35;;;;;;;;;;;;;;;20.48;54.52;100243.09;5113483;27;20399;-82
2023/10/29 07:56:10;;;;;;;;;;;;;;;20.68;52.84;100238.66;5111592;28;19959;-82
2023/10/29 07:58:39;;;;;;;;;;;;;;;20.78;52.16;100233.16;5109903;28;19988;-82
2023/10/29 08:01:14;;;;;;;;;;;;;;;20.84;52.56;100236.63;5110105;28;19916;-82
2023/10/29 08:03:40;;;;;;;;;;;;;;;20.93;51.42;100229.50;5145380;27;19915;-84
2023/10/29 08:06:05;;;;;;;;;;;;;;;21.03;50.33;100234.06;5111383;27;20343;-82
2023/10/29 08:08:38;;;;;;;;;;;;;;;21.22;50.91;100232.22;5112900;27;19957;-82
2023/10/29 08:11:04;;;;;;;;;;;;;;;21.08;52.25;100225.84;5119288;27;19919;-83
2023/10/29 08:13:29;;;;;;;;;;;;;;;21.02;53.58;100221.56;5122831;27;19919;-83
2023/10/29 08:15:54;;;;;;;;;;;;;;;21.45;51.73;100229.88;5116267;27;20365;-82
2023/10/29 08:18:20;;;;;;;;;;;;;;;21.53;51.74;100225.72;5112182;27;20285;-81
2023/10/29 08:20:45;;;;;;;;;;;;;;;21.43;51.56;100229.34;5118863;27;19919;-83
2023/10/29 08:23:10;;;;;;;;;;;;;;;21.43;52.18;100234.78;5103368;28;19912;-82
2023/10/29 08:25:36;;;;;;;;;;;;;;;21.88;50.53;100238.06;5111687;28;20790;-82
2023/10/29 08:28:01;;;;;;;;;;;;;;;22.22;50.11;100237.09;5109346;27;19922;-82
2023/10/29 08:30:27;;;;;;;;;;;;;;;22.62;48.26;100241.19;5110702;28;19916;-83
2023/10/29 08:32:52;;;;;;;;;;;;;;;22.84;47.44;100246.00;5110839;27;19912;-82
2023/10/29 08:35:17;;;;;;;;;;;;;;;22.93;47.10;100250.78;5110646;28;19915;-83
2023/10/29 08:37:43;;;;;;;;;;;;;;;22.97;47.89;100254.50;5110067;27;20528;-82
2023/10/29 08:40:08;;;;;;;;;;;;;;;23.10;46.01;100253.75;5111042;28;20456;-83
2023/10/29 08:42:34;;;;;;;;;;;;;;;22.24;48.08;100248.50;5111327;28;19926;-82
2023/10/29 08:44:59;;;;;;;;;;;;;;;22.51;48.81;100242.44;5110818;28;19920;-82
2023/10/29 08:47:27;;;;;;;;;;;;;;;22.71;47.73;100249.47;5110407;27;19918;-82
2023/10/29 08:49:53;;;;;;;;;;;;;;;22.63;46.63;100248.22;5110792;28;19926;-81
2023/10/29 08:52:18;;;;;;;;;;;;;;;22.99;45.82;100249.59;5111417;27;19915;-84
2023/10/29 08:54:44;;;;;;;;;;;;;;;23.18;46.46;100253.06;5110099;28;19922;-82
2023/10/29 08:57:09;;;;;;;;;;;;;;;23.44;44.73;100266.25;5113045;27;20014;-81
2023/10/29 08:59:35;;;;;;;;;;;;;;;23.37;45.66;100261.19;5111322;27;19915;-82
2023/10/29 09:02:00;;;;;;;;;;;;;;;23.48;44.87;100269.97;5110977;28;19938;-80
2023/10/29 09:04:26;;;;;;;;;;;;;;;23.57;44.28;100270.09;5110788;27;19923;-81
2023/10/29 09:06:51;;;;;;;;;;;;;;;24.21;43.43;100265.56;5127842;27;19977;-82
2023/10/29 09:09:16;;;;;;;;;;;;;;;24.10;43.14;100260.63;5112634;27;19920;-82
2023/10/29 09:11:44;;;;;;;;;;;;;;;23.97;43.94;100262.28;5110075;28;19915;-81
2023/10/29 09:14:11;;;;;;;;;;;;;;;24.09;43.04;100265.28;5110488;27;19919;-82
2023/10/29 09:16:36;;;;;;;;;;;;;;;24.32;42.37;100263.44;5122391;27;19916;-81
2023/10/29 09:19:02;;;;;;;;;;;;;;;24.49;41.93;100270.16;5116913;27;19916;-82
2023/10/29 09:21:27;;;;;;;;;;;;;;;24.83;41.09;100270.47;5115149;27;19915;-83
2023/10/29 09:23:52;;;;;;;;;;;;;;;25.20;39.50;100276.66;5120642;27;19916;-82
2023/10/29 09:26:18;;;;;;;;;;;;;;;25.35;39.17;100275.47;5109233;28;19919;-81
2023/10/29 09:28:43;;;;;;;;;;;;;;;25.29;40.63;100262.28;5109045;27;20603;-81
2023/10/29 09:31:13;;;;;;;;;;;;;;;25.66;39.71;100266.47;5111327;27;19922;-82
2023/10/29 09:33:39;;;;;;;;;;;;;;;26.06;38.59;100278.19;5123879;27;19945;-82
2023/10/29 09:36:04;;;;;;;;;;;;;;;25.59;38.07;100272.38;5109785;27;19919;-82
2023/10/29 09:38:29;;;;;;;;;;;;;;;25.89;36.84;100271.84;5109758;28;19919;-82
2023/10/29 09:40:55;;;;;;;;;;;;;;;25.02;38.15;100264.81;5109310;28;19911;-81
2023/10/29 09:43:23;;;;;;;;;;;;;;;25.29;37.32;100263.06;5109926;28;21584;-82
2023/10/29 09:45:49;;;;;;;;;;;;;;;25.51;37.16;100264.16;5109692;28;20311;-81
2023/10/29 09:48:17;;;;;;;;;;;;;;;25.71;37.70;100257.34;5109636;28;19919;-82
2023/10/29 09:50:43;;;;;;;;;;;;;;;26.10;34.80;100266.63;5109834;28;20405;-82
2023/10/29 09:53:10;;;;;;;;;;;;;;;25.72;35.80;100248.00;5109467;28;19927;-82
2023/10/29 09:55:35;;;;;;;;;;;;;;;26.05;35.52;100246.53;5109535;27;19916;-82
2023/10/29 09:58:03;;;;;;;;;;;;;;;25.95;35.27;100244.09;5109705;28;20156;-83
2023/10/29 10:00:28;;;;;;;;;;;;;;;26.26;34.19;100235.00;5109505;28;19922;-82
2023/10/29 10:02:55;;;;;;;;;;;;;;;26.57;34.91;100239.50;5109594;28;19915;-81
2023/10/29 10:05:21;;;;;;;;;;;;;;;26.17;34.98;100234.16;5109678;28;19915;-82
2023/10/29 10:07:47;;;;;;;;;;;;;;;26.10;35.29;100237.38;5108129;28;19991;-81
2023/10/29 10:10:13;;;;;;;;;;;;;;;26.93;33.80;100233.72;5109053;28;19920;-82
2023/10/29 10:12:46;;;;;;;;;;;;;;;26.40;34.30;100232.91;5109317;28;19976;-82
2023/10/29 10:15:11;;;;;;;;;;;;;;;26.15;33.94;100228.22;5109086;28;19951;-81
2023/10/29 10:17:37;;;;;;;;;;;;;;;26.60;34.11;100220.56;5109114;28;20033;-81
2023/10/29 10:20:11;;;;;;;;;;;;;;;26.55;33.72;100222.63;5108212;28;19972;-83
2023/10/29 10:22:36;;;;;;;;;;;;;;;26.88;33.92;100224.88;5095668;28;19949;-81
2023/10/29 10:25:01;;;;;;;;;;;;;;;27.07;32.82;100236.22;5108480;28;19916;-83
2023/10/29 10:27:29;;;;;;;;;;;;;;;27.33;32.89;100232.66;5107930;28;20303;-82
2023/10/29 10:29:56;;;;;;;;;;;;;;;27.16;32.96;100226.09;5112734;28;19987;-83
2023/10/29 10:32:23;;;;;;;;;;;;;;;27.67;32.22;100236.41;5107848;28;19927;-83
2023/10/29 10:34:52;;;;;;;;;;;;;;;27.49;32.06;100228.25;5107648;28;20301;-83
2023/10/29 10:37:18;;;;;;;;;;;;;;;27.32;32.37;100231.03;5108654;28;19919;-81
2023/10/29 10:39:43;;;;;;;;;;;;;;;26.59;32.68;100215.41;5107594;28;20921;-83
2023/10/29 10:42:08;;;;;;;;;;;;;;;25.53;35.80;100219.03;5109004;28;19919;-80
2023/10/29 10:44:35;;;;;;;;;;;;;;;25.19;35.84;100209.56;5085140;28;19927;-83
2023/10/29 10:47:03;;;;;;;;;;;;;;;25.18;36.36;100207.13;5087783;28;19920;-83
2023/10/29 10:49:31;;;;;;;;;;;;;;;25.28;35.83;100200.63;5087036;28;20018;-83
2023/10/29 10:51:58;;;;;;;;;;;;;;;25.46;35.82;100196.84;5087575;28;20007;-83
2023/10/29 10:54:25;;;;;;;;;;;;;;;25.41;35.13;100210.63;5087557;28;19920;-83
2023/10/29 10:56:51;;;;;;;;;;;;;;;26.44;33.07;100209.25;5087378;28;19923;-83
2023/10/29 10:59:20;;;;;;;;;;;;;;;27.12;32.35;100210.66;5091023;28;19920;-83
2023/10/29 11:01:45;;;;;;;;;;;;;;;27.29;32.21;100209.81;5103501;28;19986;-83
2023/10/29 11:04:11;;;;;;;;;;;;;;;26.26;33.42;100199.47;5103125;28;20038;-82
2023/10/29 11:06:37;;;;;;;;;;;;;;;25.60;34.61;100197.53;5099307;28;19916;-83
2023/10/29 11:09:03;;;;;;;;;;;;;;;25.79;34.31;100193.72;5087631;28;20010;-83
2023/10/29 11:11:38;;;;;;;;;;;;;;;26.03;33.77;100188.66;5086630;28;20316;-82
2023/10/29 11:14:22;;;;;;;;;;;;;;;25.85;34.84;100181.53;5087821;28;19920;-83
2023/10/29 11:16:51;;;;;;;;;;;;;;;26.06;33.91;100187.22;5083441;28;19920;-82
2023/10/29 11:19:35;;;;;;;;;;;;;;;25.97;33.79;100189.13;5091009;28;19992;-82
2023/10/29 11:22:16;;;;;;;;;;;;;;;25.69;35.21;100194.81;5098872;28;19923;-83
2023/10/29 11:24:41;;;;;;;;;;;;;;;25.79;34.82;100191.81;5086703;28;19954;-83
2023/10/29 11:27:25;;;;;;;;;;;;;;;26.21;34.58;100188.66;5087836;28;20005;-83
2023/10/29 11:29:50;;;;;;;;;;;;;;;26.81;33.13;100190.59;5087841;28;19966;-82
2023/10/29 11:32:25;;;;;;;;;;;;;;;27.01;33.79;100188.28;5086998;28;19959;-83
2023/10/29 11:35:09;;;;;;;;;;;;;;;27.28;32.54;100186.28;5090911;28;20579;-83
2023/10/29 11:37:36;;;;;;;;;;;;;;;28.20;30.92;100182.88;5089223;28;19919;-83
2023/10/29 11:40:21;;;;;;;;;;;;;;;28.17;30.42;100180.78;5094134;28;19915;-82
2023/10/29 11:42:46;;;;;;;;;;;;;;;27.76;31.63;100185.88;5094895;28;19919;-85
2023/10/29 11:45:27;;;;;;;;;;;;;;;28.18;32.29;100177.72;5109925;28;19920;-83
2023/10/29 11:48:17;;;;;;;;;;;;;;;28.91;30.07;100181.09;5110928;28;20056;-80
2023/10/29 11:51:02;;;;;;;;;;;;;;;29.04;30.04;100182.75;5111332;27;19916;-80
2023/10/29 11:53:28;;;;;;;;;;;;;;;29.55;29.51;100175.00;5110868;28;19919;-80
2023/10/29 11:55:57;;;;;;;;;;;;;;;29.97;30.15;100179.44;5114924;27;20300;-83
2023/10/29 11:58:24;;;;;;;;;;;;;;;29.91;29.37;100169.84;5109889;27;19972;-83
2023/10/29 12:00:50;;;;;;;;;;;;;;;30.09;29.94;100167.63;5110043;28;19936;-81
2023/10/29 12:03:22;;;;;;;;;;;;;;;29.83;29.26;100169.63;5111287;27;19915;-82
2023/10/29 12:05:54;;;;;;;;;;;;;;;29.28;29.76;100157.28;5104501;28;20284;-83
2023/10/29 12:08:19;;;;;;;;;;;;;;;30.12;28.74;100161.41;5114916;27;19923;-83
2023/10/29 12:10:48;;;;;;;;;;;;;;;29.81;29.02;100146.38;5123685;27;20320;-84
2023/10/29 12:13:18;;;;;;;;;;;;;;;29.48;29.22;100146.50;5110471;27;19918;-84
2023/10/29 12:16:03;;;;;;;;;;;;;;;28.66;29.71;100139.88;5126988;27;19947;-84
2023/10/29 12:18:28;;;;;;;;;;;;;;;28.58;30.16;100146.25;5111589;27;19916;-81
2023/10/29 12:21:06;;;;;;;;;;;;;;;28.95;30.24;100138.09;5113630;27;19919;-82
2023/10/29 12:23:32;;;;;;;;;;;;;;;28.65;30.12;100135.53;5110301;28;19912;-82
2023/10/29 12:26:01;;;;;;;;;;;;;;;28.79;30.70;100127.81;5110830;27;20010;-81
2023/10/29 12:28:26;;;;;;;;;;;;;;;28.85;30.34;100131.09;5109747;28;19924;-81
2023/10/29 12:30:52;;;;;;;;;;;;;;;28.53;30.21;100135.50;5110160;27;19942;-81
2023/10/29 12:33:21;;;;;;;;;;;;;;;28.80;29.87;100129.38;5110505;28;19927;-81
2023/10/29 12:35:47;;;;;;;;;;;;;;;28.87;30.00;100128.81;5125699;27;19919;-81
2023/10/29 12:38:13;;;;;;;;;;;;;;;29.77;29.30;100126.22;5125888;27;20346;-83